createdAt,value
2023-01-29T00:00:58.178Z,98.61
2023-01-29T00:01:58.194Z,98.65
2023-01-29T00:02:58.153Z,98.55
2023-01-29T00:03:58.142Z,98.65
2023-01-29T00:04:59.160Z,99.18
2023-01-29T00:05:58.078Z,99.28
2023-01-29T00:06:58.080Z,99.70
2023-01-29T00:07:58.142Z,99.70
2023-01-29T00:08:58.074Z,99.07
2023-01-29T00:09:58.033Z,99.18
2023-01-29T00:10:58.021Z,99.07
2023-01-29T00:11:58.020Z,99.38
2023-01-29T00:12:58.027Z,99.80
2023-01-29T00:13:58.010Z,99.49
2023-01-29T00:14:58.015Z,99.59
2023-01-29T00:15:57.982Z,99.38
2023-01-29T00:16:58.065Z,99.18
2023-01-29T00:17:57.937Z,99.80
2023-01-29T00:18:57.929Z,99.49
2023-01-29T00:19:57.960Z,99.59
2023-01-29T00:20:57.916Z,99.59
2023-01-29T00:21:57.922Z,99.70
2023-01-29T00:22:57.905Z,99.70
2023-01-29T00:23:57.928Z,99.70
2023-01-29T00:24:57.944Z,99.70
2023-01-29T00:25:57.851Z,99.59
2023-01-29T00:26:57.856Z,98.97
2023-01-29T00:27:57.861Z,99.70
2023-01-29T00:28:57.833Z,99.38
2023-01-29T00:29:57.808Z,99.59
2023-01-29T00:30:57.971Z,99.70
2023-01-29T00:31:58.038Z,99.18
2023-01-29T00:32:57.814Z,99.18
2023-01-29T00:33:57.761Z,99.91
2023-01-29T00:34:57.766Z,99.70
2023-01-29T00:35:57.744Z,99.38
2023-01-29T00:36:57.758Z,99.18
2023-01-29T00:37:57.733Z,99.80
2023-01-29T00:38:57.747Z,99.70
2023-01-29T00:39:57.698Z,98.97
2023-01-29T00:40:57.710Z,99.70
2023-01-29T00:41:57.738Z,98.86
2023-01-29T00:42:57.697Z,98.75
2023-01-29T00:43:57.668Z,99.49
2023-01-29T00:44:57.678Z,99.28
2023-01-29T00:45:57.642Z,99.80
2023-01-29T00:46:57.682Z,99.59
2023-01-29T00:47:57.656Z,99.64
2023-01-29T00:48:58.316Z,99.85
2023-01-29T00:49:57.603Z,98.59
2023-01-29T00:50:57.571Z,98.80
2023-01-29T00:51:57.565Z,98.59
2023-01-29T00:52:57.582Z,98.38
2023-01-29T00:53:57.547Z,99.01
2023-01-29T00:54:57.562Z,98.91
2023-01-29T00:55:57.526Z,98.80
2023-01-29T00:56:57.547Z,99.28
2023-01-29T00:57:57.514Z,98.69
2023-01-29T00:58:57.480Z,98.07
2023-01-29T00:59:57.498Z,97.34
2023-01-29T01:00:57.559Z,98.07
2023-01-29T01:01:57.527Z,98.07
2023-01-29T01:02:57.449Z,98.69
2023-01-29T01:03:57.425Z,98.49
2023-01-29T01:04:57.460Z,98.75
2023-01-29T01:05:57.442Z,98.75
2023-01-29T01:06:57.417Z,98.34
2023-01-29T01:07:57.379Z,97.71
2023-01-29T01:08:57.389Z,97.61
2023-01-29T01:09:57.373Z,98.02
2023-01-29T01:10:57.387Z,98.02
2023-01-29T01:11:57.372Z,98.13
2023-01-29T01:12:57.359Z,97.61
2023-01-29T01:13:57.318Z,97.61
2023-01-29T01:14:57.302Z,97.81
2023-01-29T01:15:57.314Z,97.13
2023-01-29T01:16:57.307Z,97.65
2023-01-29T01:17:57.302Z,97.55
2023-01-29T01:18:57.285Z,97.75
2023-01-29T01:19:57.280Z,97.96
2023-01-29T01:20:57.235Z,97.96
2023-01-29T01:21:57.225Z,97.55
2023-01-29T01:22:57.214Z,97.65
2023-01-29T01:23:57.252Z,97.23
2023-01-29T01:24:57.225Z,97.81
2023-01-29T01:25:57.177Z,97.44
2023-01-29T01:26:57.224Z,97.44
2023-01-29T01:27:57.181Z,97.65
2023-01-29T01:28:57.153Z,97.23
2023-01-29T01:29:57.152Z,97.65
2023-01-29T01:30:57.272Z,97.65
2023-01-29T01:31:57.153Z,97.96
2023-01-29T01:32:57.099Z,97.34
2023-01-29T01:33:57.103Z,97.86
2023-01-29T01:34:57.089Z,97.44
2023-01-29T01:35:57.092Z,97.55
2023-01-29T01:36:57.108Z,97.65
2023-01-29T01:37:57.051Z,98.07
2023-01-29T01:38:57.034Z,98.07
2023-01-29T01:39:57.022Z,97.86
2023-01-29T01:40:57.028Z,97.34
2023-01-29T01:41:57.036Z,97.96
2023-01-29T01:42:57.036Z,98.07
2023-01-29T01:43:56.977Z,97.92
2023-01-29T01:44:57.029Z,97.75
2023-01-29T01:45:56.976Z,97.96
2023-01-29T01:46:56.967Z,97.92
2023-01-29T01:47:56.943Z,97.81
2023-01-29T01:48:56.923Z,98.02
2023-01-29T01:49:56.978Z,97.81
2023-01-29T01:50:56.932Z,97.61
2023-01-29T01:51:56.893Z,97.50
2023-01-29T01:52:56.888Z,97.50
2023-01-29T01:53:56.876Z,97.92
2023-01-29T01:54:56.860Z,96.88
2023-01-29T01:55:56.887Z,96.77
2023-01-29T01:56:56.865Z,96.35
2023-01-29T01:57:56.836Z,95.83
2023-01-29T01:58:56.836Z,96.14
2023-01-29T01:59:56.837Z,96.45
2023-01-29T02:00:56.833Z,97.08
2023-01-29T02:01:56.842Z,97.61
2023-01-29T02:02:56.794Z,97.34
2023-01-29T02:03:56.773Z,97.29
2023-01-29T02:04:56.745Z,97.29
2023-01-29T02:05:56.788Z,96.66
2023-01-29T02:06:56.723Z,96.61
2023-01-29T02:07:56.721Z,96.35
2023-01-29T02:08:56.718Z,97.02
2023-01-29T02:09:56.697Z,97.02
2023-01-29T02:10:56.716Z,96.77
2023-01-29T02:11:56.713Z,96.98
2023-01-29T02:12:56.659Z,96.45
2023-01-29T02:13:56.658Z,95.56
2023-01-29T02:14:56.658Z,93.57
2023-01-29T02:15:56.650Z,92.00
2023-01-29T02:16:56.644Z,91.69
2023-01-29T02:17:56.602Z,90.74
2023-01-29T02:18:56.589Z,91.47
2023-01-29T02:19:56.602Z,91.27
2023-01-29T02:20:56.589Z,91.79
2023-01-29T02:21:56.601Z,91.96
2023-01-29T02:22:56.578Z,92.06
2023-01-29T02:23:56.740Z,92.06
2023-01-29T02:24:56.525Z,92.27
2023-01-29T02:25:56.515Z,93.21
2023-01-29T02:26:56.547Z,93.63
2023-01-29T02:27:56.520Z,93.42
2023-01-29T02:28:56.520Z,94.57
2023-01-29T02:29:56.465Z,94.26
2023-01-29T02:30:56.525Z,94.89
2023-01-29T02:31:56.485Z,94.99
2023-01-29T02:32:56.445Z,95.47
2023-01-29T02:33:56.456Z,95.37
2023-01-29T02:34:56.476Z,95.26
2023-01-29T02:35:56.398Z,95.05
2023-01-29T02:36:56.402Z,95.37
2023-01-29T02:37:56.385Z,96.16
2023-01-29T02:38:56.398Z,95.99
2023-01-29T02:39:56.366Z,95.78
2023-01-29T02:40:56.373Z,96.20
2023-01-29T02:41:56.334Z,96.20
2023-01-29T02:42:56.321Z,96.20
2023-01-29T02:43:56.323Z,95.89
2023-01-29T02:44:56.341Z,95.37
2023-01-29T02:45:56.324Z,95.32
2023-01-29T02:46:56.297Z,95.47
2023-01-29T02:47:56.272Z,95.37
2023-01-29T02:48:56.289Z,95.01
2023-01-29T02:49:56.251Z,95.05
2023-01-29T02:50:56.253Z,95.21
2023-01-29T02:51:56.218Z,95.37
2023-01-29T02:52:56.277Z,94.90
2023-01-29T02:53:56.216Z,95.32
2023-01-29T02:54:56.196Z,94.90
2023-01-29T02:55:56.198Z,95.21
2023-01-29T02:56:56.203Z,94.90
2023-01-29T02:57:56.156Z,95.43
2023-01-29T02:58:56.186Z,94.17
2023-01-29T03:00:04.919Z,94.64
2023-01-29T03:00:56.160Z,94.74
2023-01-29T03:01:56.152Z,94.95
2023-01-29T03:02:56.112Z,95.47
2023-01-29T03:03:56.128Z,95.26
2023-01-29T03:04:56.080Z,95.31
2023-01-29T03:05:56.082Z,95.41
2023-01-29T03:06:56.062Z,96.14
2023-01-29T03:07:56.067Z,96.04
2023-01-29T03:08:56.079Z,96.45
2023-01-29T03:09:56.036Z,96.56
2023-01-29T03:10:56.025Z,96.56
2023-01-29T03:11:56.026Z,96.66
2023-01-29T03:12:55.998Z,96.98
2023-01-29T03:13:56.003Z,97.50
2023-01-29T03:14:55.984Z,97.50
2023-01-29T03:15:55.952Z,97.39
2023-01-29T03:16:55.960Z,97.61
2023-01-29T03:17:55.969Z,97.61
2023-01-29T03:18:55.964Z,97.50
2023-01-29T03:19:55.905Z,97.81
2023-01-29T03:20:55.911Z,97.55
2023-01-29T03:21:55.888Z,97.29
2023-01-29T03:22:55.903Z,98.07
2023-01-29T03:23:55.932Z,97.19
2023-01-29T03:24:55.864Z,97.71
2023-01-29T03:25:55.837Z,97.50
2023-01-29T03:26:55.849Z,97.34
2023-01-29T03:27:55.853Z,97.65
2023-01-29T03:28:55.838Z,97.61
2023-01-29T03:29:55.844Z,97.81
2023-01-29T03:30:55.824Z,98.44
2023-01-29T03:31:55.886Z,98.24
2023-01-29T03:32:55.774Z,98.02
2023-01-29T03:33:55.779Z,97.71
2023-01-29T03:34:55.766Z,97.29
2023-01-29T03:35:55.756Z,97.45
2023-01-29T03:36:55.729Z,97.25
2023-01-29T03:37:55.704Z,97.25
2023-01-29T03:38:55.711Z,96.83
2023-01-29T03:39:55.713Z,96.37
2023-01-29T03:40:55.724Z,96.41
2023-01-29T03:41:55.683Z,96.10
2023-01-29T03:42:55.695Z,96.16
2023-01-29T03:43:55.637Z,96.26
2023-01-29T03:44:55.646Z,95.84
2023-01-29T03:45:55.639Z,95.53
2023-01-29T03:46:55.617Z,94.90
2023-01-29T03:47:55.620Z,96.05
2023-01-29T03:48:55.602Z,95.95
2023-01-29T03:49:55.571Z,96.05
2023-01-29T03:50:55.586Z,96.05
2023-01-29T03:51:55.583Z,96.05
2023-01-29T03:52:55.554Z,96.26
2023-01-29T03:53:55.534Z,96.05
2023-01-29T03:54:55.512Z,95.32
2023-01-29T03:55:55.518Z,95.21
2023-01-29T03:56:55.533Z,95.21
2023-01-29T03:57:55.495Z,95.32
2023-01-29T03:58:55.494Z,95.53
2023-01-29T03:59:55.500Z,94.32
2023-01-29T04:00:55.447Z,94.32
2023-01-29T04:01:55.447Z,93.17
2023-01-29T04:02:55.492Z,94.21
2023-01-29T04:03:55.499Z,93.27
2023-01-29T04:04:55.434Z,92.96
2023-01-29T04:05:55.392Z,91.87
2023-01-29T04:06:55.381Z,91.91
2023-01-29T04:07:55.394Z,90.93
2023-01-29T04:08:55.390Z,90.31
2023-01-29T04:09:55.363Z,90.52
2023-01-29T04:10:55.335Z,90.72
2023-01-29T04:11:55.336Z,90.83
2023-01-29T04:12:55.313Z,90.93
2023-01-29T04:13:55.330Z,91.35
2023-01-29T04:14:55.323Z,91.14
2023-01-29T04:15:55.308Z,91.66
2023-01-29T04:16:55.270Z,91.66
2023-01-29T04:17:55.265Z,91.18
2023-01-29T04:18:55.278Z,91.71
2023-01-29T04:19:55.248Z,91.71
2023-01-29T04:20:55.270Z,92.02
2023-01-29T04:21:55.243Z,91.81
2023-01-29T04:22:55.218Z,91.28
2023-01-29T04:23:55.263Z,91.71
2023-01-29T04:24:55.223Z,91.75
2023-01-29T04:25:55.185Z,91.91
2023-01-29T04:26:55.220Z,91.85
2023-01-29T04:27:55.153Z,91.64
2023-01-29T04:28:55.135Z,91.28
2023-01-29T04:29:55.127Z,89.97
2023-01-29T04:30:55.218Z,89.45
2023-01-29T04:31:55.217Z,90.08
2023-01-29T04:32:55.109Z,90.59
2023-01-29T04:33:55.080Z,90.33
2023-01-29T04:34:55.066Z,89.70
2023-01-29T04:35:55.085Z,89.17
2023-01-29T04:36:55.072Z,89.90
2023-01-29T04:37:55.079Z,89.90
2023-01-29T04:38:55.909Z,90.84
2023-01-29T04:39:55.012Z,91.89
2023-01-29T04:40:55.002Z,91.69
2023-01-29T04:41:55.012Z,91.96
2023-01-29T04:42:54.996Z,91.75
2023-01-29T04:43:54.990Z,92.00
2023-01-29T04:44:54.955Z,91.58
2023-01-29T04:45:54.946Z,92.00
2023-01-29T04:46:54.931Z,92.31
2023-01-29T04:47:54.957Z,92.79
2023-01-29T04:48:54.952Z,93.21
2023-01-29T04:49:54.953Z,93.32
2023-01-29T04:50:54.890Z,93.52
2023-01-29T04:51:54.878Z,93.32
2023-01-29T04:52:54.870Z,92.38
2023-01-29T04:53:54.875Z,92.16
2023-01-29T04:54:54.876Z,91.79
2023-01-29T04:55:54.870Z,91.85
2023-01-29T04:56:54.864Z,91.58
2023-01-29T04:57:54.828Z,91.89
2023-01-29T04:58:54.806Z,91.89
2023-01-29T04:59:54.787Z,92.21
2023-01-29T05:00:54.802Z,92.83
2023-01-29T05:01:54.867Z,92.90
2023-01-29T05:02:54.832Z,91.54
2023-01-29T05:03:54.743Z,91.12
2023-01-29T05:04:54.743Z,91.85
2023-01-29T05:05:54.726Z,90.81
2023-01-29T05:06:54.736Z,90.91
2023-01-29T05:07:54.734Z,90.59
2023-01-29T05:08:54.700Z,90.28
2023-01-29T05:09:54.676Z,90.18
2023-01-29T05:10:54.695Z,90.08
2023-01-29T05:11:54.663Z,89.97
2023-01-29T05:12:54.673Z,89.97
2023-01-29T05:13:54.702Z,90.11
2023-01-29T05:14:54.618Z,90.01
2023-01-29T05:15:54.684Z,90.74
2023-01-29T05:16:54.597Z,90.84
2023-01-29T05:17:54.645Z,90.95
2023-01-29T05:18:54.575Z,90.59
2023-01-29T05:19:54.623Z,90.70
2023-01-29T05:20:54.551Z,91.33
2023-01-29T05:21:54.552Z,91.79
2023-01-29T05:22:54.532Z,92.21
2023-01-29T05:23:54.575Z,91.96
2023-01-29T05:24:54.578Z,93.04
2023-01-29T05:25:54.513Z,93.32
2023-01-29T05:26:54.523Z,93.42
2023-01-29T05:27:54.503Z,93.74
2023-01-29T05:28:56.168Z,93.74
2023-01-29T05:29:54.480Z,93.52
2023-01-29T05:30:54.506Z,93.88
2023-01-29T05:31:54.439Z,94.51
2023-01-29T05:32:54.460Z,94.20
2023-01-29T05:33:54.409Z,94.40
2023-01-29T05:34:54.414Z,94.36
2023-01-29T05:35:54.417Z,94.78
2023-01-29T05:36:54.374Z,94.15
2023-01-29T05:37:54.365Z,94.05
2023-01-29T05:38:54.377Z,94.40
2023-01-29T05:39:54.366Z,94.40
2023-01-29T05:40:54.347Z,94.20
2023-01-29T05:41:54.328Z,94.62
2023-01-29T05:42:54.323Z,94.51
2023-01-29T05:43:54.322Z,94.40
2023-01-29T05:44:54.377Z,94.57
2023-01-29T05:45:54.294Z,94.26
2023-01-29T05:46:54.338Z,94.36
2023-01-29T05:47:54.253Z,94.20
2023-01-29T05:48:54.239Z,93.95
2023-01-29T05:49:54.240Z,94.62
2023-01-29T05:50:54.282Z,93.88
2023-01-29T05:51:54.222Z,94.40
2023-01-29T05:52:54.226Z,94.34
2023-01-29T05:53:54.190Z,94.40
2023-01-29T05:54:54.174Z,94.51
2023-01-29T05:55:54.168Z,94.56
2023-01-29T05:56:54.214Z,94.72
2023-01-29T05:57:54.167Z,95.60
2023-01-29T05:58:54.127Z,95.25
2023-01-29T05:59:54.135Z,94.51
2023-01-29T06:00:54.107Z,94.51
2023-01-29T06:01:54.196Z,94.09
2023-01-29T06:02:54.201Z,93.61
2023-01-29T06:03:54.101Z,93.51
2023-01-29T06:04:54.062Z,93.93
2023-01-29T06:05:54.051Z,94.34
2023-01-29T06:06:54.039Z,93.93
2023-01-29T06:07:54.046Z,93.51
2023-01-29T06:08:54.063Z,93.88
2023-01-29T06:09:54.036Z,94.40
2023-01-29T06:10:53.994Z,94.34
2023-01-29T06:11:53.987Z,93.67
2023-01-29T06:12:53.983Z,93.82
2023-01-29T06:13:54.002Z,93.51
2023-01-29T06:14:53.995Z,94.45
2023-01-29T06:15:53.988Z,93.67
2023-01-29T06:16:53.925Z,94.09
2023-01-29T06:17:53.917Z,94.30
2023-01-29T06:18:53.947Z,93.99
2023-01-29T06:19:53.908Z,93.40
2023-01-29T06:20:53.925Z,93.61
2023-01-29T06:21:53.876Z,94.03
2023-01-29T06:22:53.870Z,93.99
2023-01-29T06:23:53.964Z,93.46
2023-01-29T06:24:53.861Z,93.46
2023-01-29T06:25:53.874Z,93.88
2023-01-29T06:26:53.867Z,94.40
2023-01-29T06:27:53.806Z,93.67
2023-01-29T06:28:53.807Z,93.99
2023-01-29T06:29:53.793Z,93.99
2023-01-29T06:30:53.827Z,93.78
2023-01-29T06:31:53.912Z,93.26
2023-01-29T06:32:53.787Z,93.57
2023-01-29T06:33:53.755Z,92.67
2023-01-29T06:34:53.725Z,93.51
2023-01-29T06:35:53.726Z,93.57
2023-01-29T06:36:53.738Z,93.57
2023-01-29T06:37:53.713Z,93.30
2023-01-29T06:38:53.727Z,93.51
2023-01-29T06:39:53.672Z,92.98
2023-01-29T06:40:53.692Z,94.03
2023-01-29T06:41:53.663Z,93.71
2023-01-29T06:42:53.649Z,93.51
2023-01-29T06:43:53.693Z,93.40
2023-01-29T06:44:53.657Z,94.34
2023-01-29T06:45:53.619Z,93.57
2023-01-29T06:46:53.594Z,94.03
2023-01-29T06:47:53.588Z,94.24
2023-01-29T06:48:53.584Z,93.46
2023-01-29T06:49:53.590Z,93.46
2023-01-29T06:50:53.590Z,93.57
2023-01-29T06:51:53.536Z,93.26
2023-01-29T06:52:53.529Z,93.26
2023-01-29T06:53:53.516Z,93.30
2023-01-29T06:54:53.527Z,93.61
2023-01-29T06:55:53.527Z,93.61
2023-01-29T06:56:53.536Z,93.88
2023-01-29T06:57:53.482Z,94.87
2023-01-29T06:58:53.474Z,94.51
2023-01-29T06:59:53.479Z,94.30
2023-01-29T07:00:53.510Z,94.45
2023-01-29T07:01:53.440Z,94.51
2023-01-29T07:02:53.412Z,94.93
2023-01-29T07:03:53.422Z,94.78
2023-01-29T07:04:53.393Z,94.36
2023-01-29T07:05:53.395Z,93.95
2023-01-29T07:06:53.396Z,93.95
2023-01-29T07:07:53.355Z,93.52
2023-01-29T07:08:53.347Z,94.20
2023-01-29T07:09:53.408Z,94.15
2023-01-29T07:10:53.332Z,94.36
2023-01-29T07:11:53.330Z,93.63
2023-01-29T07:12:53.323Z,93.32
2023-01-29T07:13:53.298Z,93.74
2023-01-29T07:14:53.307Z,93.95
2023-01-29T07:15:53.295Z,93.84
2023-01-29T07:16:53.925Z,93.42
2023-01-29T07:17:53.268Z,93.42
2023-01-29T07:18:53.240Z,92.58
2023-01-29T07:19:53.222Z,91.75
2023-01-29T07:20:53.234Z,91.12
2023-01-29T07:21:53.229Z,90.59
2023-01-29T07:22:53.199Z,90.59
2023-01-29T07:23:53.182Z,90.49
2023-01-29T07:24:53.203Z,91.33
2023-01-29T07:25:53.176Z,90.91
2023-01-29T07:26:53.151Z,91.43
2023-01-29T07:27:53.181Z,91.85
2023-01-29T07:28:53.143Z,91.85
2023-01-29T07:29:53.146Z,91.85
2023-01-29T07:30:53.121Z,92.16
2023-01-29T07:31:53.212Z,91.43
2023-01-29T07:32:53.083Z,90.49
2023-01-29T07:33:53.090Z,90.53
2023-01-29T07:34:53.082Z,89.07
2023-01-29T07:35:53.071Z,89.07
2023-01-29T07:36:53.033Z,90.33
2023-01-29T07:37:53.020Z,89.84
2023-01-29T07:38:53.040Z,90.47
2023-01-29T07:39:53.037Z,91.16
2023-01-29T07:40:53.016Z,91.16
2023-01-29T07:41:52.976Z,90.84
2023-01-29T07:42:52.967Z,91.37
2023-01-29T07:43:52.974Z,91.06
2023-01-29T07:44:52.978Z,90.84
2023-01-29T07:45:52.969Z,90.43
2023-01-29T07:46:52.941Z,90.33
2023-01-29T07:47:52.909Z,90.84
2023-01-29T07:48:52.912Z,90.49
2023-01-29T07:49:52.897Z,90.84
2023-01-29T07:50:52.895Z,90.49
2023-01-29T07:51:52.917Z,90.91
2023-01-29T07:52:52.854Z,90.39
2023-01-29T07:53:52.842Z,90.59
2023-01-29T07:54:52.834Z,90.81
2023-01-29T07:55:52.821Z,90.49
2023-01-29T07:56:52.838Z,90.70
2023-01-29T07:57:52.823Z,90.84
2023-01-29T07:58:52.825Z,90.39
2023-01-29T07:59:52.774Z,91.02
2023-01-29T08:00:52.841Z,90.84
2023-01-29T08:01:52.896Z,90.53
2023-01-29T08:02:52.766Z,90.39
2023-01-29T08:03:52.731Z,90.81
2023-01-29T08:04:52.721Z,90.81
2023-01-29T08:05:52.707Z,91.22
2023-01-29T08:06:52.704Z,90.91
2023-01-29T08:08:05.822Z,91.02
2023-01-29T08:08:53.734Z,90.81
2023-01-29T08:09:52.663Z,90.95
2023-01-29T08:10:52.657Z,90.81
2023-01-29T08:11:52.641Z,90.39
2023-01-29T08:12:52.659Z,90.28
2023-01-29T08:13:52.637Z,90.59
2023-01-29T08:14:52.651Z,90.39
2023-01-29T08:15:52.593Z,90.39
2023-01-29T08:16:52.678Z,90.91
2023-01-29T08:17:57.690Z,91.02
2023-01-29T08:18:53.585Z,90.91
2023-01-29T08:19:52.567Z,90.08
2023-01-29T08:20:52.958Z,90.81
2023-01-29T08:21:52.528Z,90.70
2023-01-29T08:22:52.518Z,90.70
2023-01-29T08:23:52.527Z,91.54
2023-01-29T08:24:54.413Z,90.70
2023-01-29T08:25:53.576Z,90.70
2023-01-29T08:26:52.490Z,91.02
2023-01-29T08:27:52.484Z,90.34
2023-01-29T08:28:52.456Z,89.86
2023-01-29T08:29:52.448Z,89.55
2023-01-29T08:30:52.453Z,89.55
2023-01-29T08:31:52.465Z,89.86
2023-01-29T08:32:52.406Z,90.08
2023-01-29T08:33:52.415Z,90.39
2023-01-29T08:34:52.405Z,90.39
2023-01-29T08:35:52.387Z,89.86
2023-01-29T08:36:52.373Z,89.65
2023-01-29T08:37:52.359Z,89.86
2023-01-29T08:38:52.387Z,89.76
2023-01-29T08:39:52.357Z,90.08
2023-01-29T08:40:52.319Z,90.59
2023-01-29T08:41:52.325Z,90.70
2023-01-29T08:42:52.316Z,89.86
2023-01-29T08:43:52.317Z,90.28
2023-01-29T08:44:52.272Z,89.34
2023-01-29T08:45:52.304Z,89.34
2023-01-29T08:46:52.255Z,89.23
2023-01-29T08:47:52.248Z,90.18
2023-01-29T08:48:52.242Z,89.97
2023-01-29T08:49:52.260Z,89.86
2023-01-29T08:50:52.205Z,90.28
2023-01-29T08:51:52.211Z,90.08
2023-01-29T08:52:52.194Z,89.03
2023-01-29T08:53:52.192Z,88.61
2023-01-29T08:54:52.186Z,89.03
2023-01-29T08:55:52.162Z,89.23
2023-01-29T08:56:52.153Z,89.34
2023-01-29T08:57:52.185Z,89.13
2023-01-29T08:58:52.134Z,89.76
2023-01-29T08:59:52.122Z,89.76
2023-01-29T09:00:52.127Z,90.18
2023-01-29T09:01:52.087Z,89.86
2023-01-29T09:02:52.085Z,89.86
2023-01-29T09:03:52.132Z,90.28
2023-01-29T09:04:52.058Z,90.08
2023-01-29T09:05:52.065Z,90.59
2023-01-29T09:06:52.074Z,90.70
2023-01-29T09:07:53.362Z,89.97
2023-01-29T09:08:52.005Z,90.08
2023-01-29T09:09:52.011Z,90.39
2023-01-29T09:10:51.993Z,89.97
2023-01-29T09:11:52.000Z,89.76
2023-01-29T09:12:51.963Z,90.18
2023-01-29T09:13:51.949Z,90.49
2023-01-29T09:14:51.954Z,91.33
2023-01-29T09:15:52.007Z,91.02
2023-01-29T09:16:52.002Z,91.54
2023-01-29T09:17:51.939Z,91.02
2023-01-29T09:18:51.927Z,90.08
2023-01-29T09:19:51.881Z,89.97
2023-01-29T09:20:51.891Z,89.97
2023-01-29T09:21:51.911Z,89.86
2023-01-29T09:22:51.870Z,89.76
2023-01-29T09:23:51.858Z,90.08
2023-01-29T09:24:51.827Z,90.18
2023-01-29T09:25:51.817Z,89.34
2023-01-29T09:26:51.833Z,89.97
2023-01-29T09:27:51.812Z,90.18
2023-01-29T09:28:51.813Z,88.82
2023-01-29T09:29:51.770Z,88.61
2023-01-29T09:30:51.881Z,87.52
2023-01-29T09:31:52.083Z,86.62
2023-01-29T09:32:53.556Z,85.78
2023-01-29T09:33:51.741Z,86.10
2023-01-29T09:34:51.747Z,86.52
2023-01-29T09:35:51.705Z,86.62
2023-01-29T09:36:51.710Z,86.16
2023-01-29T09:37:51.825Z,86.58
2023-01-29T09:38:51.683Z,87.42
2023-01-29T09:39:51.680Z,87.84
2023-01-29T09:40:51.711Z,87.52
2023-01-29T09:41:51.669Z,87.63
2023-01-29T09:42:51.628Z,88.36
2023-01-29T09:43:51.617Z,87.84
2023-01-29T09:44:51.631Z,88.26
2023-01-29T09:45:51.624Z,88.15
2023-01-29T09:46:51.640Z,88.57
2023-01-29T09:47:51.606Z,89.20
2023-01-29T09:48:51.563Z,88.67
2023-01-29T09:49:51.553Z,88.99
2023-01-29T09:50:51.571Z,90.14
2023-01-29T09:51:51.531Z,89.30
2023-01-29T09:52:51.580Z,88.88
2023-01-29T09:53:51.504Z,88.99
2023-01-29T09:54:51.493Z,88.26
2023-01-29T09:55:51.490Z,87.84
2023-01-29T09:56:51.498Z,88.36
2023-01-29T09:57:51.473Z,87.73
2023-01-29T09:58:51.511Z,87.94
2023-01-29T09:59:51.456Z,87.21
2023-01-29T10:00:51.447Z,87.00
2023-01-29T10:01:51.594Z,86.79
2023-01-29T10:02:51.428Z,86.69
2023-01-29T10:03:51.407Z,86.16
2023-01-29T10:04:51.476Z,85.33
2023-01-29T10:05:51.388Z,85.78
2023-01-29T10:06:51.362Z,85.96
2023-01-29T10:07:51.357Z,85.16
2023-01-29T10:08:51.361Z,85.16
2023-01-29T10:09:51.342Z,84.63
2023-01-29T10:10:51.326Z,84.84
2023-01-29T10:11:51.301Z,83.90
2023-01-29T10:12:51.308Z,84.11
2023-01-29T10:13:51.298Z,84.32
2023-01-29T10:14:51.290Z,85.78
2023-01-29T10:15:51.264Z,86.10
2023-01-29T10:16:51.318Z,85.89
2023-01-29T10:17:51.342Z,86.37
2023-01-29T10:18:51.239Z,84.28
2023-01-29T10:19:51.231Z,84.28
2023-01-29T10:20:51.241Z,85.01
2023-01-29T10:21:51.190Z,84.80
2023-01-29T10:22:51.238Z,84.56
2023-01-29T10:23:51.172Z,85.18
2023-01-29T10:24:51.175Z,85.29
2023-01-29T10:25:51.170Z,85.96
2023-01-29T10:26:51.158Z,84.70
2023-01-29T10:27:51.159Z,84.70
2023-01-29T10:28:51.143Z,84.07
2023-01-29T10:29:51.106Z,83.23
2023-01-29T10:30:51.243Z,83.38
2023-01-29T10:31:51.172Z,83.65
2023-01-29T10:32:51.079Z,84.07
2023-01-29T10:34:01.362Z,85.12
2023-01-29T10:34:52.090Z,83.44
2023-01-29T10:35:51.068Z,83.34
2023-01-29T10:36:51.032Z,83.23
2023-01-29T10:37:51.023Z,83.55
2023-01-29T10:38:51.003Z,84.14
2023-01-29T10:39:50.991Z,83.40
2023-01-29T10:40:51.003Z,82.99
2023-01-29T10:41:53.080Z,82.78
2023-01-29T10:42:50.991Z,82.92
2023-01-29T10:43:50.964Z,83.76
2023-01-29T10:44:50.938Z,83.86
2023-01-29T10:45:50.926Z,83.80
2023-01-29T10:46:50.926Z,83.86
2023-01-29T10:47:51.039Z,84.00
2023-01-29T10:48:50.938Z,83.76
2023-01-29T10:49:50.878Z,84.42
2023-01-29T10:50:50.885Z,84.00
2023-01-29T10:51:50.856Z,84.39
2023-01-29T10:52:50.871Z,84.74
2023-01-29T10:53:50.852Z,85.22
2023-01-29T10:54:50.860Z,84.70
2023-01-29T10:55:50.841Z,82.92
2023-01-29T10:56:50.806Z,83.13
2023-01-29T10:57:50.793Z,84.17
2023-01-29T10:58:50.829Z,83.65
2023-01-29T10:59:50.812Z,83.72
2023-01-29T11:00:50.776Z,83.83
2023-01-29T11:01:50.777Z,83.20
2023-01-29T11:02:50.865Z,83.93
2023-01-29T11:03:50.750Z,83.93
2023-01-29T11:04:50.733Z,84.34
2023-01-29T11:05:50.749Z,83.72
2023-01-29T11:06:50.708Z,83.62
2023-01-29T11:07:50.693Z,83.83
2023-01-29T11:08:50.685Z,83.58
2023-01-29T11:09:50.659Z,83.78
2023-01-29T11:10:50.660Z,83.16
2023-01-29T11:11:50.670Z,83.06
2023-01-29T11:12:50.634Z,82.95
2023-01-29T11:13:50.634Z,82.53
2023-01-29T11:14:50.603Z,83.26
2023-01-29T11:15:50.598Z,82.84
2023-01-29T11:16:50.631Z,81.18
2023-01-29T11:17:50.604Z,82.12
2023-01-29T11:18:50.560Z,82.64
2023-01-29T11:19:50.559Z,83.09
2023-01-29T11:20:50.536Z,82.84
2023-01-29T11:21:50.535Z,82.74
2023-01-29T11:22:50.537Z,82.53
2023-01-29T11:23:51.514Z,83.64
2023-01-29T11:24:50.498Z,83.47
2023-01-29T11:25:50.501Z,82.84
2023-01-29T11:26:50.467Z,82.07
2023-01-29T11:27:50.526Z,82.60
2023-01-29T11:28:50.464Z,82.81
2023-01-29T11:29:50.479Z,82.81
2023-01-29T11:30:50.525Z,82.91
2023-01-29T11:31:50.494Z,82.39
2023-01-29T11:32:50.441Z,82.91
2023-01-29T11:33:50.509Z,82.70
2023-01-29T11:34:50.450Z,82.60
2023-01-29T11:35:50.434Z,83.23
2023-01-29T11:36:50.959Z,84.69
2023-01-29T11:37:50.454Z,83.75
2023-01-29T11:38:50.375Z,83.12
2023-01-29T11:39:50.489Z,82.91
2023-01-29T11:40:50.401Z,83.12
2023-01-29T11:41:50.301Z,82.91
2023-01-29T11:42:50.291Z,82.81
2023-01-29T11:43:50.484Z,83.85
2023-01-29T11:44:50.288Z,83.12
2023-01-29T11:45:50.273Z,82.81
2023-01-29T11:46:50.304Z,82.81
2023-01-29T11:47:50.274Z,83.44
2023-01-29T11:48:50.449Z,83.75
2023-01-29T11:49:50.216Z,83.75
2023-01-29T11:50:50.200Z,83.01
2023-01-29T11:51:50.225Z,83.64
2023-01-29T11:52:50.178Z,84.06
2023-01-29T11:53:50.174Z,83.23
2023-01-29T11:54:50.175Z,82.81
2023-01-29T11:55:51.159Z,82.77
2023-01-29T11:56:50.139Z,83.40
2023-01-29T11:57:50.172Z,81.52
2023-01-29T11:58:50.146Z,81.93
2023-01-29T11:59:50.112Z,81.87
2023-01-29T12:00:50.090Z,81.93
2023-01-29T12:01:50.096Z,83.12
2023-01-29T12:02:50.074Z,82.04
2023-01-29T12:03:50.170Z,82.77
2023-01-29T12:04:50.046Z,80.30
2023-01-29T12:05:50.097Z,80.93
2023-01-29T12:06:50.051Z,81.56
2023-01-29T12:07:50.039Z,82.60
2023-01-29T12:08:50.013Z,82.29
2023-01-29T12:09:50.025Z,82.50
2023-01-29T12:10:49.980Z,82.29
2023-01-29T12:11:49.984Z,82.81
2023-01-29T12:12:49.960Z,82.35
2023-01-29T12:13:49.952Z,81.24
2023-01-29T12:14:49.956Z,80.41
2023-01-29T12:15:50.001Z,80.68
2023-01-29T12:16:49.936Z,81.56
2023-01-29T12:17:49.912Z,81.13
2023-01-29T12:18:49.915Z,81.03
2023-01-29T12:19:49.897Z,81.52
2023-01-29T12:20:49.891Z,81.31
2023-01-29T12:21:49.893Z,82.56
2023-01-29T12:22:49.847Z,82.35
2023-01-29T12:23:49.863Z,82.46
2023-01-29T12:24:49.846Z,82.53
2023-01-29T12:25:49.840Z,82.77
2023-01-29T12:26:49.817Z,81.73
2023-01-29T12:27:49.800Z,82.46
2023-01-29T12:28:49.780Z,82.10
2023-01-29T12:29:49.801Z,81.73
2023-01-29T12:30:49.794Z,80.37
2023-01-29T12:31:49.762Z,79.95
2023-01-29T12:32:49.781Z,80.47
2023-01-29T12:33:49.765Z,79.95
2023-01-29T12:34:49.716Z,80.37
2023-01-29T12:35:49.713Z,81.41
2023-01-29T12:36:49.753Z,81.41
2023-01-29T12:37:49.700Z,81.83
2023-01-29T12:38:49.667Z,82.25
2023-01-29T12:39:49.675Z,82.18
2023-01-29T12:40:49.669Z,82.60
2023-01-29T12:41:49.647Z,82.39
2023-01-29T12:42:49.636Z,82.81
2023-01-29T12:43:49.636Z,82.29
2023-01-29T12:44:49.601Z,82.81
2023-01-29T12:45:49.590Z,82.07
2023-01-29T12:46:49.631Z,83.01
2023-01-29T12:47:49.591Z,82.60
2023-01-29T12:48:49.590Z,82.81
2023-01-29T12:49:49.565Z,82.91
2023-01-29T12:50:49.539Z,83.54
2023-01-29T12:51:49.524Z,83.85
2023-01-29T12:52:49.532Z,83.68